createdAt,value
2018-07-28T00:01:00.234Z,547.40
2018-07-28T00:03:27.395Z,550.27
2018-07-28T00:05:54.559Z,552.00
2018-07-28T00:08:21.727Z,553.87
2018-07-28T00:10:48.898Z,552.80
2018-07-28T00:13:16.049Z,549.43
2018-07-28T00:15:43.202Z,544.40
2018-07-28T00:18:10.376Z,545.50
2018-07-28T00:20:37.533Z,548.13
2018-07-28T00:23:04.820Z,546.10
2018-07-28T00:25:37.538Z,547.17
2018-07-28T00:28:05.486Z,552.03
2018-07-28T00:30:32.647Z,550.63
2018-07-28T00:32:59.782Z,542.27
2018-07-28T00:35:26.942Z,544.27
2018-07-28T00:37:54.110Z,550.67
2018-07-28T00:40:21.271Z,547.90
2018-07-28T00:42:48.417Z,548.60
2018-07-28T00:45:15.576Z,546.77
2018-07-28T00:47:42.728Z,551.00
2018-07-28T00:50:10.092Z,543.17
2018-07-28T00:52:37.650Z,548.50
2018-07-28T00:55:05.223Z,545.33
2018-07-28T00:57:32.382Z,553.17
2018-07-28T00:59:59.543Z,548.73
2018-07-28T01:02:26.731Z,545.33
2018-07-28T01:04:54.942Z,550.20
2018-07-28T01:07:22.151Z,551.20
2018-07-28T01:09:49.439Z,549.70
2018-07-28T01:12:16.652Z,550.37
2018-07-28T01:14:43.847Z,545.03
2018-07-28T01:17:11.057Z,546.03
2018-07-28T01:19:38.242Z,543.97
2018-07-28T01:22:05.455Z,548.83
2018-07-28T01:24:32.949Z,550.70
2018-07-28T01:27:00.295Z,541.57
2018-07-28T01:29:27.475Z,545.20
2018-07-28T01:31:54.700Z,543.80
2018-07-28T01:34:21.904Z,545.07
2018-07-28T01:36:49.121Z,544.60
2018-07-28T01:39:16.315Z,546.77
2018-07-28T01:41:43.884Z,546.80
2018-07-28T01:44:11.131Z,539.83
2018-07-28T01:46:38.619Z,541.70
2018-07-28T01:49:06.386Z,538.67
2018-07-28T01:51:34.019Z,544.07
2018-07-28T01:54:01.224Z,546.73
2018-07-28T01:56:28.519Z,544.80
2018-07-28T01:58:56.054Z,545.13
2018-07-28T02:01:23.452Z,550.73
2018-07-28T02:03:50.648Z,548.03
2018-07-28T02:06:17.839Z,542.00
2018-07-28T02:08:45.072Z,550.13
2018-07-28T02:11:12.262Z,540.23
2018-07-28T02:13:39.859Z,548.47
2018-07-28T02:16:07.219Z,549.60
2018-07-28T02:18:34.418Z,547.70
2018-07-28T02:21:01.675Z,545.40
2018-07-28T02:23:28.886Z,551.30
2018-07-28T02:25:56.085Z,544.40
2018-07-28T02:28:23.300Z,553.03
2018-07-28T02:30:50.503Z,546.50
2018-07-28T02:33:17.970Z,542.30
2018-07-28T02:35:45.232Z,542.63
2018-07-28T02:38:12.465Z,542.87
2018-07-28T02:40:39.699Z,546.27
2018-07-28T02:43:06.928Z,544.40
2018-07-28T02:45:34.203Z,542.00
2018-07-28T02:48:01.416Z,542.67
2018-07-28T02:50:28.639Z,542.17
2018-07-28T02:52:55.841Z,543.67
2018-07-28T02:55:23.057Z,541.37
2018-07-28T02:57:50.255Z,544.87
2018-07-28T03:00:17.493Z,539.93
2018-07-28T03:02:44.670Z,546.43
2018-07-28T03:05:11.915Z,547.57
2018-07-28T03:07:39.144Z,543.20
2018-07-28T03:10:07.046Z,542.37
2018-07-28T03:12:34.304Z,545.23
2018-07-28T03:15:05.052Z,545.27
2018-07-28T03:17:32.259Z,543.57
2018-07-28T03:19:59.456Z,542.93
2018-07-28T03:22:26.652Z,542.27
2018-07-28T03:24:54.230Z,545.53
2018-07-28T03:27:21.443Z,546.93
2018-07-28T03:29:48.631Z,546.23
2018-07-28T03:32:15.819Z,543.93
2018-07-28T03:34:43.004Z,545.33
2018-07-28T03:37:10.207Z,544.90
2018-07-28T03:39:37.491Z,542.93
2018-07-28T03:42:04.696Z,540.87
2018-07-28T03:44:31.886Z,548.90
2018-07-28T03:46:59.075Z,545.27
2018-07-28T03:49:26.266Z,542.13
2018-07-28T03:51:53.546Z,537.93
2018-07-28T03:54:20.743Z,546.37
2018-07-28T03:56:47.934Z,545.97
2018-07-28T03:59:15.132Z,543.90
2018-07-28T04:01:42.335Z,544.67
2018-07-28T04:04:09.532Z,539.33
2018-07-28T04:06:36.767Z,540.13
2018-07-28T04:09:06.527Z,540.10
2018-07-28T04:11:33.747Z,542.03
2018-07-28T04:14:00.952Z,547.90
2018-07-28T04:16:28.139Z,539.43
2018-07-28T04:18:55.322Z,545.33
2018-07-28T04:21:22.511Z,540.40
2018-07-28T04:23:49.703Z,540.50
2018-07-28T04:26:16.907Z,538.67
2018-07-28T04:28:44.099Z,542.43
2018-07-28T04:31:11.278Z,546.27
2018-07-28T04:33:38.452Z,539.97
2018-07-28T04:36:05.655Z,546.57
2018-07-28T04:38:32.840Z,542.30
2018-07-28T04:41:00.047Z,541.17
2018-07-28T04:43:27.228Z,541.70
2018-07-28T04:45:54.454Z,545.53
2018-07-28T04:48:21.646Z,546.47
2018-07-28T04:50:48.843Z,544.70
2018-07-28T04:53:16.076Z,543.67
2018-07-28T04:55:43.270Z,541.93
2018-07-28T04:58:10.453Z,547.93
2018-07-28T05:00:37.686Z,549.03
2018-07-28T05:03:04.860Z,554.33
2018-07-28T05:05:32.028Z,545.63
2018-07-28T05:07:59.199Z,544.60
2018-07-28T05:10:26.363Z,547.37
2018-07-28T05:12:53.626Z,541.40
2018-07-28T05:15:20.820Z,545.20
2018-07-28T05:17:47.990Z,544.93
2018-07-28T05:20:15.198Z,540.23
2018-07-28T05:22:42.357Z,546.13
2018-07-28T05:25:09.527Z,550.47
2018-07-28T05:27:36.699Z,548.97
2018-07-28T05:30:05.609Z,549.53
2018-07-28T05:32:32.799Z,545.60
2018-07-28T05:34:59.989Z,552.80
2018-07-28T05:37:27.175Z,551.03
2018-07-28T05:39:54.788Z,548.00
2018-07-28T05:42:22.007Z,556.13
2018-07-28T05:44:49.334Z,551.67
2018-07-28T05:47:16.506Z,556.70
2018-07-28T05:49:43.659Z,558.93
2018-07-28T05:52:10.831Z,553.00
2018-07-28T05:54:37.982Z,548.10
2018-07-28T05:57:05.175Z,554.70
2018-07-28T05:59:32.343Z,553.07
2018-07-28T06:01:59.783Z,548.50
2018-07-28T06:04:26.980Z,552.50
2018-07-28T06:06:54.176Z,555.57
2018-07-28T06:09:21.368Z,550.23
2018-07-28T06:11:48.562Z,549.47
2018-07-28T06:14:15.777Z,556.83
2018-07-28T06:16:42.961Z,548.67
2018-07-28T06:19:10.179Z,553.30
2018-07-28T06:21:37.376Z,552.60
2018-07-28T06:24:04.714Z,555.10
2018-07-28T06:26:31.917Z,552.03
2018-07-28T06:28:59.103Z,558.63
2018-07-28T06:31:26.299Z,555.13
2018-07-28T06:33:53.595Z,556.80
2018-07-28T06:36:20.776Z,556.80
2018-07-28T06:38:47.982Z,558.07
2018-07-28T06:41:15.278Z,553.97
2018-07-28T06:43:42.464Z,556.10
2018-07-28T06:46:09.742Z,550.97
2018-07-28T06:48:36.986Z,557.63
2018-07-28T06:51:04.556Z,562.03
2018-07-28T06:53:31.854Z,556.53
2018-07-28T06:55:59.135Z,561.77
2018-07-28T06:58:26.380Z,565.60
2018-07-28T07:00:53.567Z,567.90
2018-07-28T07:03:20.822Z,567.00
2018-07-28T07:05:48.043Z,577.10
2018-07-28T07:08:15.297Z,584.67
2018-07-28T07:10:42.512Z,588.20
2018-07-28T07:13:09.726Z,631.30
2018-07-28T07:15:36.926Z,640.57
2018-07-28T07:18:04.136Z,666.03
2018-07-28T07:20:31.364Z,686.97
2018-07-28T07:22:58.641Z,670.37
2018-07-28T07:25:25.855Z,729.60
2018-07-28T07:27:53.125Z,708.70
2018-07-28T07:30:20.445Z,699.30
2018-07-28T07:32:47.878Z,669.03
2018-07-28T07:35:16.413Z,656.97
2018-07-28T07:37:43.736Z,640.93
2018-07-28T07:40:10.906Z,661.77
2018-07-28T07:42:38.122Z,644.87
2018-07-28T07:45:05.571Z,677.27
2018-07-28T07:47:32.864Z,681.37
2018-07-28T07:49:59.987Z,714.77
2018-07-28T07:52:27.179Z,719.03
2018-07-28T07:54:54.391Z,722.90
2018-07-28T07:57:21.634Z,728.00
2018-07-28T07:59:48.816Z,686.50
2018-07-28T08:02:15.987Z,687.97
2018-07-28T08:04:43.209Z,693.97
2018-07-28T08:07:10.383Z,661.17
2018-07-28T08:09:37.567Z,648.63
2018-07-28T08:12:04.956Z,676.30
2018-07-28T08:14:32.134Z,663.30
2018-07-28T08:16:59.294Z,643.90
2018-07-28T08:19:26.459Z,639.13
2018-07-28T08:21:53.631Z,680.20
2018-07-28T08:24:20.843Z,700.10
2018-07-28T08:26:48.006Z,660.53
2018-07-28T08:29:15.197Z,669.07
2018-07-28T08:31:42.364Z,650.33
2018-07-28T08:34:09.518Z,605.37
2018-07-28T08:36:36.779Z,592.90
2018-07-28T08:39:08.383Z,590.90
2018-07-28T08:41:35.551Z,577.50
2018-07-28T08:44:02.731Z,581.87
2018-07-28T08:46:29.923Z,570.30
2018-07-28T08:48:57.245Z,571.00
2018-07-28T08:51:24.355Z,563.70
2018-07-28T08:53:51.512Z,555.73
2018-07-28T08:56:19.027Z,558.50
2018-07-28T08:58:46.327Z,552.40
2018-07-28T09:01:13.567Z,559.87
2018-07-28T09:03:40.832Z,547.23
2018-07-28T09:06:08.027Z,554.13
2018-07-28T09:08:35.266Z,550.63
2018-07-28T09:11:02.548Z,550.47
2018-07-28T09:13:29.763Z,547.13
2018-07-28T09:15:56.938Z,545.50
2018-07-28T09:18:24.160Z,551.77
2018-07-28T09:20:51.471Z,550.40
2018-07-28T09:23:18.708Z,553.80
2018-07-28T09:25:45.862Z,561.60
2018-07-28T09:28:13.067Z,568.53
2018-07-28T09:30:40.437Z,563.57
2018-07-28T09:33:07.668Z,565.90
2018-07-28T09:35:34.983Z,565.43
2018-07-28T09:38:02.275Z,563.63
2018-07-28T09:40:29.643Z,568.53
2018-07-28T09:42:56.982Z,568.93
2018-07-28T09:45:24.186Z,583.97
2018-07-28T09:47:51.416Z,573.57
2018-07-28T09:50:18.791Z,586.80
2018-07-28T09:52:46.079Z,583.20
2018-07-28T09:55:13.249Z,583.97
2018-07-28T09:57:40.570Z,585.47
2018-07-28T10:00:07.906Z,581.33
2018-07-28T10:02:35.168Z,586.17
2018-07-28T10:05:02.584Z,592.53
2018-07-28T10:07:29.943Z,585.53
2018-07-28T10:09:57.269Z,581.63
2018-07-28T10:12:24.567Z,577.93
2018-07-28T10:14:54.280Z,589.90
2018-07-28T10:17:21.582Z,594.13
2018-07-28T10:19:48.866Z,583.47
2018-07-28T10:22:16.069Z,587.77
2018-07-28T10:24:43.447Z,583.40
2018-07-28T10:27:10.647Z,598.03
2018-07-28T10:29:37.879Z,621.53
2018-07-28T10:32:05.135Z,619.17
2018-07-28T10:34:33.092Z,613.20
2018-07-28T10:37:00.347Z,621.43
2018-07-28T10:39:27.534Z,611.03
2018-07-28T10:41:54.728Z,587.60
2018-07-28T10:44:21.912Z,586.17
2018-07-28T10:46:49.134Z,619.83
2018-07-28T10:49:16.319Z,629.47
2018-07-28T10:51:43.590Z,640.93
2018-07-28T10:54:10.912Z,664.77
2018-07-28T10:56:38.169Z,668.03
2018-07-28T10:59:05.492Z,682.03
2018-07-28T11:01:32.794Z,656.70
2018-07-28T11:04:00.053Z,667.77
2018-07-28T11:06:27.234Z,655.13
2018-07-28T11:08:54.596Z,634.33
2018-07-28T11:11:22.056Z,676.80
2018-07-28T11:13:49.427Z,667.30
2018-07-28T11:16:16.698Z,665.50
2018-07-28T11:18:44.125Z,671.27
2018-07-28T11:21:11.431Z,687.73
2018-07-28T11:23:52.022Z,683.90
2018-07-28T11:26:19.319Z,706.47
2018-07-28T11:28:46.459Z,718.97
2018-07-28T11:31:25.168Z,750.00
2018-07-28T11:34:03.800Z,775.00
2018-07-28T11:36:42.506Z,752.80
2018-07-28T11:39:21.015Z,749.03
2018-07-28T11:41:59.547Z,757.27
2018-07-28T11:44:38.295Z,794.53
2018-07-28T11:47:05.506Z,759.23
2018-07-28T11:49:33.322Z,746.37
2018-07-28T11:52:00.523Z,756.67
2018-07-28T11:54:27.714Z,783.17
2018-07-28T11:56:54.913Z,751.07
2018-07-28T11:59:22.091Z,777.30
2018-07-28T12:01:49.303Z,791.13
2018-07-28T12:04:16.479Z,773.77
2018-07-28T12:06:43.717Z,763.93
2018-07-28T12:09:10.922Z,748.37
2018-07-28T12:11:38.184Z,757.80
2018-07-28T12:14:05.655Z,789.50
2018-07-28T12:16:32.859Z,761.33
2018-07-28T12:19:00.055Z,765.67
2018-07-28T12:21:27.458Z,804.23
2018-07-28T12:23:54.686Z,837.37
2018-07-28T12:26:21.875Z,827.43
2018-07-28T12:28:49.095Z,815.00
2018-07-28T12:31:16.327Z,840.17
2018-07-28T12:33:43.519Z,827.33
2018-07-28T12:36:10.825Z,790.03
2018-07-28T12:38:38.247Z,778.10
2018-07-28T12:41:05.463Z,764.77
2018-07-28T12:43:32.654Z,770.67
2018-07-28T12:45:59.840Z,772.87
2018-07-28T12:48:27.051Z,747.43
2018-07-28T12:50:54.247Z,778.03
2018-07-28T12:53:21.434Z,759.83
2018-07-28T12:55:48.643Z,782.97
2018-07-28T12:58:15.823Z,798.53
2018-07-28T13:00:43.027Z,787.03
2018-07-28T13:03:10.194Z,754.93
2018-07-28T13:05:37.379Z,771.53
2018-07-28T13:08:04.684Z,752.17
2018-07-28T13:10:31.855Z,718.37
2018-07-28T13:12:59.012Z,660.50
2018-07-28T13:15:26.212Z,658.40
2018-07-28T13:17:53.455Z,607.33
2018-07-28T13:20:20.651Z,586.10
2018-07-28T13:22:47.842Z,576.50
2018-07-28T13:25:15.053Z,569.27
2018-07-28T13:27:42.227Z,567.43
2018-07-28T13:30:09.435Z,567.80
2018-07-28T13:32:36.804Z,563.17
2018-07-28T13:35:04.058Z,556.33
2018-07-28T13:37:31.239Z,553.87
2018-07-28T13:39:58.431Z,558.10
2018-07-28T13:42:25.596Z,563.70
2018-07-28T13:44:52.759Z,574.53
2018-07-28T13:47:19.924Z,583.67
2018-07-28T13:49:47.124Z,622.13
2018-07-28T13:52:14.299Z,635.67
2018-07-28T13:54:41.478Z,711.27
2018-07-28T13:57:08.651Z,717.23
2018-07-28T13:59:35.819Z,779.17
2018-07-28T14:02:03.043Z,791.67
2018-07-28T14:04:30.199Z,758.63
2018-07-28T14:06:57.419Z,760.37
2018-07-28T14:09:24.607Z,764.27
2018-07-28T14:11:51.979Z,733.60
2018-07-28T14:14:19.131Z,745.57
2018-07-28T14:16:46.369Z,707.53
2018-07-28T14:19:13.504Z,695.27
2018-07-28T14:21:40.695Z,711.27
2018-07-28T14:24:08.032Z,658.40
2018-07-28T14:26:35.214Z,658.97
2018-07-28T14:29:02.427Z,606.30
2018-07-28T14:31:29.695Z,589.20
2018-07-28T14:33:56.854Z,594.00
2018-07-28T14:36:24.066Z,583.63
2018-07-28T14:38:51.300Z,585.87
2018-07-28T14:41:18.470Z,587.27
2018-07-28T14:43:45.679Z,579.60
2018-07-28T14:46:12.893Z,578.90
2018-07-28T14:48:40.179Z,584.77
2018-07-28T14:51:07.392Z,579.40
2018-07-28T14:53:34.850Z,574.90
2018-07-28T14:56:02.046Z,577.53
2018-07-28T14:58:29.260Z,580.20
2018-07-28T15:00:56.596Z,570.83
2018-07-28T15:03:23.774Z,571.40
2018-07-28T15:05:51.024Z,570.63
2018-07-28T15:08:18.247Z,572.07
2018-07-28T15:10:45.463Z,575.63
2018-07-28T15:13:12.645Z,572.27
2018-07-28T15:15:39.836Z,580.33
2018-07-28T15:18:07.147Z,584.57
2018-07-28T15:20:34.327Z,580.30
2018-07-28T15:23:01.538Z,591.77
2018-07-28T15:25:28.718Z,585.40
2018-07-28T15:27:55.875Z,590.77
2018-07-28T15:30:23.067Z,587.70
2018-07-28T15:32:50.301Z,592.80
2018-07-28T15:35:17.492Z,612.87
2018-07-28T15:37:44.662Z,643.97
2018-07-28T15:40:11.826Z,641.50
2018-07-28T15:42:38.984Z,663.03
2018-07-28T15:45:06.219Z,640.27
2018-07-28T15:47:33.382Z,642.63
2018-07-28T15:50:00.547Z,646.73
2018-07-28T15:52:27.819Z,685.17
2018-07-28T15:54:54.991Z,669.90
2018-07-28T15:57:22.165Z,668.53
2018-07-28T15:59:49.371Z,696.13
2018-07-28T16:02:16.570Z,643.40
2018-07-28T16:04:43.761Z,659.03
2018-07-28T16:07:10.967Z,661.03
2018-07-28T16:09:38.267Z,628.23
2018-07-28T16:12:05.585Z,653.70
2018-07-28T16:14:32.774Z,633.40
2018-07-28T16:16:59.955Z,630.67
2018-07-28T16:19:27.220Z,604.80
2018-07-28T16:21:54.542Z,604.07
2018-07-28T16:24:21.719Z,602.77
2018-07-28T16:26:48.902Z,589.17
2018-07-28T16:29:16.179Z,583.70
2018-07-28T16:31:43.400Z,582.97
2018-07-28T16:34:10.592Z,579.40
2018-07-28T16:36:37.760Z,585.77
2018-07-28T16:39:06.791Z,575.83
2018-07-28T16:41:33.964Z,576.00
2018-07-28T16:44:01.139Z,575.93
2018-07-28T16:46:28.417Z,577.10
2018-07-28T16:48:55.619Z,569.60
2018-07-28T16:51:22.802Z,579.10
2018-07-28T16:53:49.978Z,569.63
2018-07-28T16:56:17.155Z,575.67
2018-07-28T16:58:44.402Z,570.47
2018-07-28T17:01:11.575Z,569.73
2018-07-28T17:03:38.796Z,574.20
2018-07-28T17:06:06.040Z,567.07
2018-07-28T17:08:33.260Z,567.53
2018-07-28T17:11:00.483Z,569.60
2018-07-28T17:13:27.692Z,566.10
2018-07-28T17:15:54.902Z,568.93
2018-07-28T17:18:22.645Z,567.80
2018-07-28T17:20:49.863Z,572.47
2018-07-28T17:23:17.054Z,565.30
2018-07-28T17:25:44.279Z,565.30
2018-07-28T17:28:11.488Z,569.90
2018-07-28T17:30:38.774Z,563.30
2018-07-28T17:33:06.610Z,568.97
2018-07-28T17:35:33.863Z,563.07
2018-07-28T17:38:01.118Z,565.80
2018-07-28T17:40:28.421Z,563.97
2018-07-28T17:42:55.666Z,560.20
2018-07-28T17:45:22.904Z,565.93
2018-07-28T17:47:50.090Z,558.57
2018-07-28T17:50:17.303Z,555.97
2018-07-28T17:52:44.523Z,557.00
2018-07-28T17:55:11.731Z,555.20
2018-07-28T17:57:38.953Z,559.00
2018-07-28T18:00:07.472Z,553.87
2018-07-28T18:02:34.690Z,555.63
2018-07-28T18:05:01.895Z,553.50
2018-07-28T18:07:29.076Z,552.17
2018-07-28T18:09:56.215Z,556.73
2018-07-28T18:12:23.374Z,555.63
2018-07-28T18:14:50.539Z,564.07
2018-07-28T18:17:17.695Z,555.73
2018-07-28T18:19:44.864Z,559.60
2018-07-28T18:22:12.160Z,580.50
2018-07-28T18:24:39.358Z,600.30
2018-07-28T18:27:06.581Z,554.80
2018-07-28T18:29:33.731Z,567.77
2018-07-28T18:32:00.934Z,551.43
2018-07-28T18:34:28.408Z,556.03
2018-07-28T18:36:55.553Z,557.33
2018-07-28T18:39:22.714Z,553.83
2018-07-28T18:41:49.928Z,559.63
2018-07-28T18:44:17.029Z,551.33
2018-07-28T18:46:44.196Z,550.93
2018-07-28T18:49:11.365Z,553.60
2018-07-28T18:51:38.553Z,553.60
2018-07-28T18:54:05.717Z,552.93
2018-07-28T18:56:32.924Z,549.13
2018-07-28T18:59:00.085Z,552.53
2018-07-28T19:01:27.279Z,567.03
2018-07-28T19:03:54.533Z,551.30
2018-07-28T19:06:22.619Z,549.00
2018-07-28T19:08:55.717Z,548.27
2018-07-28T19:11:22.921Z,555.57
2018-07-28T19:13:55.866Z,551.83
2018-07-28T19:16:23.177Z,551.23
2018-07-28T19:18:55.983Z,556.20
2018-07-28T19:21:23.254Z,548.60
2018-07-28T19:23:56.276Z,547.10
2018-07-28T19:26:23.595Z,546.50
2018-07-28T19:28:56.758Z,547.87
2018-07-28T19:31:24.067Z,549.73
2018-07-28T19:33:51.247Z,555.77
2018-07-28T19:36:24.214Z,548.90
2018-07-28T19:38:51.431Z,549.33
2018-07-28T19:41:19.019Z,548.93
2018-07-28T19:43:46.231Z,548.40
2018-07-28T19:46:13.427Z,544.83
2018-07-28T19:48:40.631Z,556.97
2018-07-28T19:51:07.838Z,544.97
2018-07-28T19:53:35.033Z,547.07
2018-07-28T19:56:02.271Z,549.37
2018-07-28T19:58:29.496Z,550.93
2018-07-28T20:00:56.777Z,548.67
2018-07-28T20:03:23.962Z,548.30
2018-07-28T20:05:51.157Z,552.80
2018-07-28T20:08:18.395Z,549.13
2018-07-28T20:10:45.574Z,550.97
2018-07-28T20:13:12.791Z,550.97
2018-07-28T20:15:40.048Z,548.07
2018-07-28T20:18:07.238Z,548.27
2018-07-28T20:20:34.430Z,548.83
2018-07-28T20:23:01.669Z,546.93
2018-07-28T20:25:28.874Z,548.17
2018-07-28T20:27:56.079Z,547.30
2018-07-28T20:30:23.308Z,545.20
2018-07-28T20:32:50.583Z,544.33
2018-07-28T20:35:17.811Z,550.40
2018-07-28T20:37:45.029Z,543.87
2018-07-28T20:40:12.251Z,540.70
2018-07-28T20:42:39.703Z,540.97
2018-07-28T20:45:06.899Z,541.10
2018-07-28T20:47:34.222Z,545.33
2018-07-28T20:50:01.451Z,537.90
2018-07-28T20:52:28.651Z,539.70
2018-07-28T20:54:55.848Z,540.00
2018-07-28T20:57:23.062Z,542.33
2018-07-28T20:59:50.259Z,544.23
2018-07-28T21:02:17.643Z,546.40
2018-07-28T21:04:44.832Z,539.60
2018-07-28T21:07:12.048Z,542.67
2018-07-28T21:09:39.368Z,548.50
2018-07-28T21:12:06.608Z,538.37
2018-07-28T21:14:33.790Z,542.77
2018-07-28T21:17:01.003Z,544.03
2018-07-28T21:19:28.187Z,542.03
2018-07-28T21:21:55.396Z,540.00
2018-07-28T21:24:22.594Z,545.73
2018-07-28T21:26:49.794Z,544.40
2018-07-28T21:29:17.003Z,539.93
2018-07-28T21:31:44.186Z,540.80
2018-07-28T21:34:11.392Z,537.87
2018-07-28T21:36:38.592Z,537.43
2018-07-28T21:39:06.990Z,539.03
2018-07-28T21:41:34.278Z,542.00
2018-07-28T21:44:01.479Z,538.23
2018-07-28T21:46:28.662Z,540.83
2018-07-28T21:48:55.838Z,537.97
2018-07-28T21:51:23.011Z,538.03
2018-07-28T21:53:50.230Z,535.50
2018-07-28T21:56:22.028Z,538.50
2018-07-28T21:58:49.243Z,542.33
2018-07-28T22:01:16.439Z,543.00
2018-07-28T22:03:43.626Z,533.60
2018-07-28T22:06:10.822Z,535.20
2018-07-28T22:08:37.979Z,539.23
2018-07-28T22:11:05.227Z,536.00
2018-07-28T22:13:32.544Z,538.63
2018-07-28T22:15:59.971Z,533.87
2018-07-28T22:18:27.286Z,542.90
2018-07-28T22:20:54.471Z,536.77
2018-07-28T22:23:21.679Z,537.90
2018-07-28T22:25:48.867Z,538.10
2018-07-28T22:28:16.215Z,534.23
2018-07-28T22:30:43.375Z,537.30
2018-07-28T22:33:10.648Z,537.70
2018-07-28T22:35:37.940Z,534.40
2018-07-28T22:38:05.271Z,535.13
2018-07-28T22:40:32.454Z,537.00
2018-07-28T22:42:59.628Z,537.07
2018-07-28T22:45:26.894Z,536.53
2018-07-28T22:47:54.086Z,534.00
2018-07-28T22:50:21.262Z,534.07
2018-07-28T22:52:48.420Z,533.40
2018-07-28T22:55:15.723Z,531.47
2018-07-28T22:57:42.913Z,531.60
2018-07-28T23:00:10.102Z,535.73
2018-07-28T23:02:37.361Z,531.27
2018-07-28T23:05:05.052Z,535.93
2018-07-28T23:07:32.223Z,540.70
2018-07-28T23:09:59.447Z,539.13
2018-07-28T23:12:26.630Z,537.70
2018-07-28T23:14:53.811Z,531.50
2018-07-28T23:17:21.008Z,538.10
2018-07-28T23:19:48.195Z,533.83
2018-07-28T23:22:15.390Z,535.93
2018-07-28T23:24:42.580Z,534.30
2018-07-28T23:27:09.763Z,539.00
2018-07-28T23:29:36.975Z,539.67
2018-07-28T23:32:04.179Z,535.60
2018-07-28T23:34:31.408Z,533.97
2018-07-28T23:36:58.679Z,533.63
2018-07-28T23:39:25.985Z,534.77
2018-07-28T23:41:53.236Z,539.93
2018-07-28T23:44:20.571Z,536.23
2018-07-28T23:46:47.932Z,537.83
2018-07-28T23:49:15.116Z,530.50
2018-07-28T23:51:42.372Z,532.83
2018-07-28T23:54:09.723Z,534.13
2018-07-28T23:56:36.939Z,536.07
2018-07-28T23:59:04.333Z,534.73
